sensor_id;sensor_type;location;lat;lon;timestamp;pressure;altitude;pressure_sealevel;temperature;humidity
11302;BME280;5706;50.650;13.380;2023-01-31T05:27:17;56425.66;;;-140.63;72.02
11302;BME280;5706;50.650;13.380;2023-01-31T05:36:01;56441.56;;;-140.63;72.10
11302;BME280;5706;50.650;13.380;2023-01-31T05:58:01;56451.50;;;-140.63;73.55
11302;BME280;5706;50.650;13.380;2023-01-31T06:00:36;56455.47;;;-140.63;73.70
11302;BME280;5706;50.650;13.380;2023-01-31T06:03:18;56443.56;;;-140.63;73.57
11302;BME280;5706;50.650;13.380;2023-01-31T06:06:10;56469.41;;;-140.63;73.49
11302;BME280;5706;50.650;13.380;2023-01-31T06:08:53;56451.50;;;-140.63;73.22
11302;BME280;5706;50.650;13.380;2023-01-31T07:14:14;56425.66;;;-140.63;68.77
11302;BME280;5706;50.650;13.380;2023-01-31T07:27:12;56455.47;;;-140.63;68.67
11302;BME280;5706;50.650;13.380;2023-01-31T09:34:15;56433.59;;;-140.63;51.92
11302;BME280;5706;50.650;13.380;2023-01-31T09:36:45;56417.69;;;-140.63;51.37
11302;BME280;5706;50.650;13.380;2023-01-31T09:39:14;56417.69;;;-140.63;51.44
11302;BME280;5706;50.650;13.380;2023-01-31T09:41:44;56439.56;;;-140.63;53.43
11302;BME280;5706;50.650;13.380;2023-01-31T09:44:19;56433.59;;;-140.63;54.33
11302;BME280;5706;50.650;13.380;2023-01-31T09:46:54;56413.72;;;-140.63;56.30
11302;BME280;5706;50.650;13.380;2023-01-31T09:49:40;56401.78;;;-140.63;56.86
11302;BME280;5706;50.650;13.380;2023-01-31T09:52:11;56447.53;;;-140.63;57.97
11302;BME280;5706;50.650;13.380;2023-01-31T09:54:40;56461.44;;;-140.63;59.05
11302;BME280;5706;50.650;13.380;2023-01-31T09:57:18;56417.69;;;-140.63;58.40
11302;BME280;5706;50.650;13.380;2023-01-31T10:00:01;56401.78;;;-140.63;57.28
11302;BME280;5706;50.650;13.380;2023-01-31T10:05:56;56433.59;;;-140.63;56.43
11302;BME280;5706;50.650;13.380;2023-01-31T10:08:38;56421.69;;;-140.63;57.04
11302;BME280;5706;50.650;13.380;2023-01-31T10:11:23;56429.63;;;-140.63;56.87
11302;BME280;5706;50.650;13.380;2023-01-31T10:14:05;56401.78;;;-140.63;57.98
11302;BME280;5706;50.650;13.380;2023-01-31T10:17:12;56443.56;;;-140.63;56.94
11302;BME280;5706;50.650;13.380;2023-01-31T10:20:02;56401.78;;;-140.63;57.27
11302;BME280;5706;50.650;13.380;2023-01-31T10:26:29;56401.78;;;-140.63;57.34
11302;BME280;5706;50.650;13.380;2023-01-31T10:34:27;56415.72;;;-140.63;57.79
11302;BME280;5706;50.650;13.380;2023-01-31T10:42:51;56425.66;;;-140.63;57.99
11302;BME280;5706;50.650;13.380;2023-01-31T10:46:13;56443.56;;;-140.63;58.01
11302;BME280;5706;50.650;13.380;2023-01-31T10:49:18;56435.59;;;-140.63;57.97
11302;BME280;5706;50.650;13.380;2023-01-31T10:56:09;56433.59;;;-140.63;56.87
11302;BME280;5706;50.650;13.380;2023-01-31T10:58:49;56439.56;;;-140.63;57.04
11302;BME280;5706;50.650;13.380;2023-01-31T11:01:17;56419.69;;;-140.63;57.33
11302;BME280;5706;50.650;13.380;2023-01-31T11:03:48;56445.53;;;-140.63;55.62
11302;BME280;5706;50.650;13.380;2023-01-31T11:06:20;56435.59;;;-140.63;56.29
11302;BME280;5706;50.650;13.380;2023-01-31T11:08:52;56413.72;;;-140.63;55.79
11302;BME280;5706;50.650;13.380;2023-01-31T11:11:25;56423.66;;;-140.63;55.99
11302;BME280;5706;50.650;13.380;2023-01-31T11:13:59;56409.75;;;-140.63;55.25
11302;BME280;5706;50.650;13.380;2023-01-31T11:16:30;56409.75;;;-140.63;54.72
11302;BME280;5706;50.650;13.380;2023-01-31T11:19:02;56439.56;;;-140.63;52.75
11302;BME280;5706;50.650;13.380;2023-01-31T11:21:48;56437.59;;;-140.63;53.30
11302;BME280;5706;50.650;13.380;2023-01-31T11:24:21;56435.59;;;-140.63;52.67
11302;BME280;5706;50.650;13.380;2023-01-31T11:26:54;56427.66;;;-140.63;52.27
11302;BME280;5706;50.650;13.380;2023-01-31T11:29:27;56397.81;;;-140.63;52.02
11302;BME280;5706;50.650;13.380;2023-01-31T11:31:59;56385.88;;;-140.63;53.71
11302;BME280;5706;50.650;13.380;2023-01-31T11:34:31;56435.59;;;-140.63;55.17
11302;BME280;5706;50.650;13.380;2023-01-31T11:37:12;56405.78;;;-140.63;54.45
11302;BME280;5706;50.650;13.380;2023-01-31T11:39:53;56409.75;;;-140.63;54.66
11302;BME280;5706;50.650;13.380;2023-01-31T11:42:25;56387.88;;;-140.63;54.56
11302;BME280;5706;50.650;13.380;2023-01-31T11:44:56;56407.75;;;-140.63;54.52
11302;BME280;5706;50.650;13.380;2023-01-31T11:47:37;56427.66;;;-140.63;53.80
11302;BME280;5706;50.650;13.380;2023-01-31T11:50:18;56415.72;;;-140.63;55.52
11302;BME280;5706;50.650;13.380;2023-01-31T11:52:53;56429.63;;;-140.63;57.08
11302;BME280;5706;50.650;13.380;2023-01-31T11:58:40;56429.63;;;-140.63;57.99
11302;BME280;5706;50.650;13.380;2023-01-31T12:01:17;56419.69;;;-140.63;58.92
11302;BME280;5706;50.650;13.380;2023-01-31T12:03:50;56397.81;;;-140.63;58.76
11302;BME280;5706;50.650;13.380;2023-01-31T12:06:32;56417.69;;;-140.63;58.19
11302;BME280;5706;50.650;13.380;2023-01-31T12:09:04;56433.59;;;-140.63;58.41
11302;BME280;5706;50.650;13.380;2023-01-31T12:15:14;56411.75;;;-140.63;58.27
11302;BME280;5706;50.650;13.380;2023-01-31T12:17:44;56431.63;;;-140.63;58.41
11302;BME280;5706;50.650;13.380;2023-01-31T12:20:36;56413.72;;;-140.63;58.23
11302;BME280;5706;50.650;13.380;2023-01-31T12:23:25;56425.66;;;-140.63;56.62
11302;BME280;5706;50.650;13.380;2023-01-31T12:26:07;56441.56;;;-140.63;57.14
11302;BME280;5706;50.650;13.380;2023-01-31T12:40:47;56405.78;;;-140.63;59.09
11302;BME280;5706;50.650;13.380;2023-01-31T12:43:49;56433.59;;;-140.63;59.34
11302;BME280;5706;50.650;13.380;2023-01-31T12:46:36;56421.69;;;-140.63;59.40
11302;BME280;5706;50.650;13.380;2023-01-31T12:49:53;56445.53;;;-140.63;60.21
